Meteo Giornale » Osservazioni meteo Stati Uniti (USA) » Lawton
ore: 16:53 - Osservazioni Meteo Lawton
Lat. 34° 33' N Lon. 98° 25' W Alt. 338 metri s.l.m.
38 °C
Poco Nuvoloso
Temp. 24 Ore
22 °C
39 °C
Sud
18.5 Km/h
Dew point 13 °C
Umidità 22 %
Visibilità 10 Km
Il sole sorge alle ore 07:06
Il sole tramonta alle ore 20:01
| Data e Ora | Cielo e Fenomeni | T °C | DP °C | Um. % | Pres. hPa | Vis. km | Vento km/h | |
|---|---|---|---|---|---|---|---|---|
| Oggi h: 16:53 | Poco Nuvoloso | 38 | 13 | 22 | 1014 | 10 | S 18.5 | |
| Oggi h: 15:53 | Nuvoloso | 38 | 13 | 22 | 1014 | 10 | SE 13 | |
| Oggi h: 14:53 | Nuvoloso | 38 | 14 | 24 | 1015 | 10 | S/SE 14.8 | |
| Oggi h: 13:56 | Nuvoloso | 37 | 15 | 27 | 1015 | 10 | S/SE 14.8 | |
| Oggi h: 13:53 | Nuvoloso | 37 | 15 | 27 | 1015 | 10 | N 0 | |
| Oggi h: 12:53 | Poco Nuvoloso | 37 | 16 | 28 | 1016 | 10 | S 18.5 | |
| Oggi h: 11:53 | Sereno | 36 | 18 | 34 | 1017 | 10 | S/SO 16.7 | |
| Oggi h: 10:53 | Sereno | 34 | 19 | 41 | 1017 | 10 | S/SO 16.7 | |
| Oggi h: 09:53 | Sereno | 31 | 18 | 45 | 1017 | 10 | S/SO 18.5 | |
| Oggi h: 08:53 | Sereno | 27 | 16 | 50 | 1017 | 10 | N 5.5 | |
| Oggi h: 07:53 | Sereno | 23 | 16 | 64 | 1016 | 10 | N 0 | |
| Oggi h: 06:53 | Sereno | 22 | 14 | 60 | 1015 | 10 | N 5.5 | |
| Oggi h: 05:53 | Sereno | 22 | 14 | 60 | 1015 | 10 | N 5.5 | |
| Oggi h: 04:53 | Sereno | 23 | 14 | 56 | 1015 | 10 | E 7.4 | |
| Oggi h: 03:53 | Sereno | 24 | 14 | 53 | 1014 | 10 | N 5.5 | |
| Oggi h: 02:53 | Sereno | 26 | 13 | 44 | 1014 | 10 | N 5.5 | |
| Oggi h: 01:53 | Sereno | 28 | 13 | 39 | 1014 | 10 | S/SE 11.1 | |
| Oggi h: 00:53 | Sereno | 29 | 13 | 37 | 1014 | 10 | S/SE 13 | |
| Ieri h: 23:53 | Sereno | 30 | 13 | 35 | 1014 | 10 | S/SE 16.7 | |
| Ieri h: 22:53 | Sereno | 31 | 13 | 33 | 1013 | 10 | SE 18.5 | |
| Ieri h: 21:53 | Sereno | 32 | 13 | 31 | 1012 | 10 | S/SE 13 | |
| Ieri h: 20:53 | Sereno | 34 | 13 | 28 | 1012 | 10 | S/SE 16.7 | |
| Ieri h: 19:53 | Sereno | 36 | 13 | 25 | 1011 | 10 | S/SE 18.5 | |
| Ieri h: 18:53 | Sereno | 38 | 13 | 22 | 1011 | 10 | S/SE 20.3 | |
| Ieri h: 17:53 | Sereno | 39 | 13 | 21 | 1011 | 10 | S 9.3 | |



